sensor_id;sensor_type;location;lat;lon;timestamp;temperature;humidity
11083;DHT22;5595;50.186;8.468;2023-11-19T00:40:54;7.80;99.90
11083;DHT22;5595;50.186;8.468;2023-11-19T00:43:21;7.80;99.90
11083;DHT22;5595;50.186;8.468;2023-11-19T00:45:48;7.80;99.90
11083;DHT22;5595;50.186;8.468;2023-11-19T00:48:16;7.80;99.90
11083;DHT22;5595;50.186;8.468;2023-11-19T00:50:43;7.80;99.90
11083;DHT22;5595;50.186;8.468;2023-11-19T00:53:11;7.80;99.90
11083;DHT22;5595;50.186;8.468;2023-11-19T00:55:38;7.80;99.90
11083;DHT22;5595;50.186;8.468;2023-11-19T00:58:06;7.80;99.90
11083;DHT22;5595;50.186;8.468;2023-11-19T01:00:33;7.90;99.90
11083;DHT22;5595;50.186;8.468;2023-11-19T01:03:00;7.90;99.90
11083;DHT22;5595;50.186;8.468;2023-11-19T01:05:27;7.90;99.90
11083;DHT22;5595;50.186;8.468;2023-11-19T01:07:57;7.90;99.90
11083;DHT22;5595;50.186;8.468;2023-11-19T01:10:24;8.00;99.90
11083;DHT22;5595;50.186;8.468;2023-11-19T01:12:51;8.00;99.90
11083;DHT22;5595;50.186;8.468;2023-11-19T01:15:19;7.90;99.90
11083;DHT22;5595;50.186;8.468;2023-11-19T01:17:46;8.00;99.90
11083;DHT22;5595;50.186;8.468;2023-11-19T01:20:13;8.00;99.90
11083;DHT22;5595;50.186;8.468;2023-11-19T01:22:40;8.00;99.90
11083;DHT22;5595;50.186;8.468;2023-11-19T01:25:08;8.00;99.90
11083;DHT22;5595;50.186;8.468;2023-11-19T01:27:35;8.00;99.90
11083;DHT22;5595;50.186;8.468;2023-11-19T01:30:02;8.00;99.90
11083;DHT22;5595;50.186;8.468;2023-11-19T01:32:31;8.00;99.90
11083;DHT22;5595;50.186;8.468;2023-11-19T01:34:57;8.00;99.90
11083;DHT22;5595;50.186;8.468;2023-11-19T01:37:24;8.00;99.90
11083;DHT22;5595;50.186;8.468;2023-11-19T01:39:54;8.00;99.90
11083;DHT22;5595;50.186;8.468;2023-11-19T01:42:21;8.10;99.90
11083;DHT22;5595;50.186;8.468;2023-11-19T01:44:56;8.10;99.90
11083;DHT22;5595;50.186;8.468;2023-11-19T01:47:24;8.00;99.90
11083;DHT22;5595;50.186;8.468;2023-11-19T01:49:52;8.00;99.90
11083;DHT22;5595;50.186;8.468;2023-11-19T01:52:20;8.00;99.90
11083;DHT22;5595;50.186;8.468;2023-11-19T01:54:47;8.00;99.90
11083;DHT22;5595;50.186;8.468;2023-11-19T01:57:14;8.00;99.90
11083;DHT22;5595;50.186;8.468;2023-11-19T01:59:41;8.00;99.90
11083;DHT22;5595;50.186;8.468;2023-11-19T02:02:09;8.00;99.90
11083;DHT22;5595;50.186;8.468;2023-11-19T02:04:35;8.00;99.90
11083;DHT22;5595;50.186;8.468;2023-11-19T02:07:05;7.90;99.90
11083;DHT22;5595;50.186;8.468;2023-11-19T02:09:32;7.90;99.90
11083;DHT22;5595;50.186;8.468;2023-11-19T02:11:59;8.00;99.90
11083;DHT22;5595;50.186;8.468;2023-11-19T02:14:26;8.00;99.90
11083;DHT22;5595;50.186;8.468;2023-11-19T02:16:54;8.00;99.90
11083;DHT22;5595;50.186;8.468;2023-11-19T02:19:21;7.90;99.90
11083;DHT22;5595;50.186;8.468;2023-11-19T02:21:48;7.90;99.90
11083;DHT22;5595;50.186;8.468;2023-11-19T02:24:18;7.90;99.90
11083;DHT22;5595;50.186;8.468;2023-11-19T02:26:55;8.00;99.90
11083;DHT22;5595;50.186;8.468;2023-11-19T02:29:25;8.00;99.90
11083;DHT22;5595;50.186;8.468;2023-11-19T02:31:52;8.10;99.90
11083;DHT22;5595;50.186;8.468;2023-11-19T02:34:20;8.00;99.90
11083;DHT22;5595;50.186;8.468;2023-11-19T02:36:47;8.00;99.90
11083;DHT22;5595;50.186;8.468;2023-11-19T02:39:15;8.00;99.90
11083;DHT22;5595;50.186;8.468;2023-11-19T02:41:46;8.10;99.90
11083;DHT22;5595;50.186;8.468;2023-11-19T02:44:16;8.10;99.90
11083;DHT22;5595;50.186;8.468;2023-11-19T02:46:44;8.20;99.90
11083;DHT22;5595;50.186;8.468;2023-11-19T02:49:13;8.20;99.90
11083;DHT22;5595;50.186;8.468;2023-11-19T02:51:40;8.20;99.90
11083;DHT22;5595;50.186;8.468;2023-11-19T02:54:07;8.20;99.90
11083;DHT22;5595;50.186;8.468;2023-11-19T02:56:34;8.20;99.90
11083;DHT22;5595;50.186;8.468;2023-11-19T02:59:02;8.20;99.90
11083;DHT22;5595;50.186;8.468;2023-11-19T03:01:34;8.30;99.90
11083;DHT22;5595;50.186;8.468;2023-11-19T03:04:03;8.20;99.90
11083;DHT22;5595;50.186;8.468;2023-11-19T03:06:30;8.30;99.90
11083;DHT22;5595;50.186;8.468;2023-11-19T03:08:57;8.30;99.90
11083;DHT22;5595;50.186;8.468;2023-11-19T03:11:24;8.30;99.90
11083;DHT22;5595;50.186;8.468;2023-11-19T03:13:51;8.30;99.90
11083;DHT22;5595;50.186;8.468;2023-11-19T03:16:17;8.30;99.90
11083;DHT22;5595;50.186;8.468;2023-11-19T03:18:44;8.30;99.90
11083;DHT22;5595;50.186;8.468;2023-11-19T03:21:12;8.30;99.90
11083;DHT22;5595;50.186;8.468;2023-11-19T03:23:39;8.30;99.90
11083;DHT22;5595;50.186;8.468;2023-11-19T03:26:06;8.40;99.90
11083;DHT22;5595;50.186;8.468;2023-11-19T03:28:34;8.30;99.90
11083;DHT22;5595;50.186;8.468;2023-11-19T03:31:04;8.40;99.90
11083;DHT22;5595;50.186;8.468;2023-11-19T03:33:33;8.30;99.90
11083;DHT22;5595;50.186;8.468;2023-11-19T03:36:00;8.40;99.90
11083;DHT22;5595;50.186;8.468;2023-11-19T03:38:28;8.40;99.90
11083;DHT22;5595;50.186;8.468;2023-11-19T03:40:55;8.50;99.90
11083;DHT22;5595;50.186;8.468;2023-11-19T03:43:22;8.40;99.90
11083;DHT22;5595;50.186;8.468;2023-11-19T03:45:48;8.40;99.90
11083;DHT22;5595;50.186;8.468;2023-11-19T03:48:16;8.40;99.90
11083;DHT22;5595;50.186;8.468;2023-11-19T03:50:42;8.40;99.90
11083;DHT22;5595;50.186;8.468;2023-11-19T03:53:09;8.40;99.90
11083;DHT22;5595;50.186;8.468;2023-11-19T03:55:37;8.50;99.90
11083;DHT22;5595;50.186;8.468;2023-11-19T03:58:07;8.40;99.90
11083;DHT22;5595;50.186;8.468;2023-11-19T04:00:34;8.50;99.90
11083;DHT22;5595;50.186;8.468;2023-11-19T04:03:00;8.50;99.90
11083;DHT22;5595;50.186;8.468;2023-11-19T04:05:28;8.50;99.90
11083;DHT22;5595;50.186;8.468;2023-11-19T04:07:55;8.50;99.90
11083;DHT22;5595;50.186;8.468;2023-11-19T04:10:21;8.50;99.90
11083;DHT22;5595;50.186;8.468;2023-11-19T04:12:50;8.60;99.90
11083;DHT22;5595;50.186;8.468;2023-11-19T04:15:17;8.60;99.90
11083;DHT22;5595;50.186;8.468;2023-11-19T04:17:43;8.60;99.90
11083;DHT22;5595;50.186;8.468;2023-11-19T04:20:11;8.60;99.90
11083;DHT22;5595;50.186;8.468;2023-11-19T04:22:39;8.60;99.90
11083;DHT22;5595;50.186;8.468;2023-11-19T04:25:07;8.60;99.90
11083;DHT22;5595;50.186;8.468;2023-11-19T04:27:33;8.60;99.90
11083;DHT22;5595;50.186;8.468;2023-11-19T04:30:02;8.60;99.90
11083;DHT22;5595;50.186;8.468;2023-11-19T04:32:30;8.60;99.90
11083;DHT22;5595;50.186;8.468;2023-11-19T04:34:57;8.60;99.90
11083;DHT22;5595;50.186;8.468;2023-11-19T04:37:24;8.60;99.90
11083;DHT22;5595;50.186;8.468;2023-11-19T04:39:51;8.60;99.90
11083;DHT22;5595;50.186;8.468;2023-11-19T04:42:17;8.60;99.90
11083;DHT22;5595;50.186;8.468;2023-11-19T04:44:45;8.60;99.90
11083;DHT22;5595;50.186;8.468;2023-11-19T04:47:13;8.60;99.90
11083;DHT22;5595;50.186;8.468;2023-11-19T04:49:40;8.60;99.90
11083;DHT22;5595;50.186;8.468;2023-11-19T04:52:09;8.70;99.90
11083;DHT22;5595;50.186;8.468;2023-11-19T04:54:41;8.60;99.90
11083;DHT22;5595;50.186;8.468;2023-11-19T04:57:08;8.60;99.90
11083;DHT22;5595;50.186;8.468;2023-11-19T04:59:36;8.60;99.90
11083;DHT22;5595;50.186;8.468;2023-11-19T05:02:03;8.70;99.90
11083;DHT22;5595;50.186;8.468;2023-11-19T05:04:31;8.70;99.90
11083;DHT22;5595;50.186;8.468;2023-11-19T05:06:58;8.70;99.90
11083;DHT22;5595;50.186;8.468;2023-11-19T05:09:25;8.70;99.90
11083;DHT22;5595;50.186;8.468;2023-11-19T05:11:52;8.70;99.90
11083;DHT22;5595;50.186;8.468;2023-11-19T05:14:19;8.70;99.90
11083;DHT22;5595;50.186;8.468;2023-11-19T05:16:47;8.80;99.90
11083;DHT22;5595;50.186;8.468;2023-11-19T05:19:13;8.80;99.90
11083;DHT22;5595;50.186;8.468;2023-11-19T05:21:43;8.80;99.90
11083;DHT22;5595;50.186;8.468;2023-11-19T05:24:10;8.80;99.90
11083;DHT22;5595;50.186;8.468;2023-11-19T05:26:37;8.80;99.90
11083;DHT22;5595;50.186;8.468;2023-11-19T05:29:04;8.90;99.90
11083;DHT22;5595;50.186;8.468;2023-11-19T05:31:31;8.90;99.90
11083;DHT22;5595;50.186;8.468;2023-11-19T05:33:58;8.90;99.90
11083;DHT22;5595;50.186;8.468;2023-11-19T05:36:24;8.90;99.90
11083;DHT22;5595;50.186;8.468;2023-11-19T05:38:53;9.00;99.90
11083;DHT22;5595;50.186;8.468;2023-11-19T05:41:19;8.90;99.90
11083;DHT22;5595;50.186;8.468;2023-11-19T05:43:46;9.00;99.90
11083;DHT22;5595;50.186;8.468;2023-11-19T05:46:13;8.90;99.90
11083;DHT22;5595;50.186;8.468;2023-11-19T05:48:40;9.00;99.90
11083;DHT22;5595;50.186;8.468;2023-11-19T05:51:06;9.00;99.90
11083;DHT22;5595;50.186;8.468;2023-11-19T05:53:33;9.00;99.90
11083;DHT22;5595;50.186;8.468;2023-11-19T05:56:01;9.00;99.90
11083;DHT22;5595;50.186;8.468;2023-11-19T05:58:29;9.00;99.90
11083;DHT22;5595;50.186;8.468;2023-11-19T06:00:58;9.00;99.90
11083;DHT22;5595;50.186;8.468;2023-11-19T06:03:25;9.00;99.90
11083;DHT22;5595;50.186;8.468;2023-11-19T06:05:52;9.00;99.90
11083;DHT22;5595;50.186;8.468;2023-11-19T06:08:20;9.00;99.90
11083;DHT22;5595;50.186;8.468;2023-11-19T06:10:47;9.00;99.90
11083;DHT22;5595;50.186;8.468;2023-11-19T06:13:17;9.00;99.90
11083;DHT22;5595;50.186;8.468;2023-11-19T06:15:45;9.10;99.90
11083;DHT22;5595;50.186;8.468;2023-11-19T06:18:11;9.10;99.90
11083;DHT22;5595;50.186;8.468;2023-11-19T06:20:40;9.20;99.90
11083;DHT22;5595;50.186;8.468;2023-11-19T06:23:06;9.20;99.90
11083;DHT22;5595;50.186;8.468;2023-11-19T06:25:33;9.20;99.90
11083;DHT22;5595;50.186;8.468;2023-11-19T06:28:01;9.20;99.90
11083;DHT22;5595;50.186;8.468;2023-11-19T06:30:29;9.30;99.90
11083;DHT22;5595;50.186;8.468;2023-11-19T06:32:58;9.30;99.90
11083;DHT22;5595;50.186;8.468;2023-11-19T06:35:24;9.30;99.90
11083;DHT22;5595;50.186;8.468;2023-11-19T06:37:52;9.30;99.90
11083;DHT22;5595;50.186;8.468;2023-11-19T06:40:18;9.40;99.90
11083;DHT22;5595;50.186;8.468;2023-11-19T06:42:46;9.40;99.90
11083;DHT22;5595;50.186;8.468;2023-11-19T06:45:12;9.40;99.90
11083;DHT22;5595;50.186;8.468;2023-11-19T06:47:41;9.40;99.90
11083;DHT22;5595;50.186;8.468;2023-11-19T06:50:08;9.50;99.90
11083;DHT22;5595;50.186;8.468;2023-11-19T06:52:35;9.50;99.90
11083;DHT22;5595;50.186;8.468;2023-11-19T06:55:04;9.50;99.90
11083;DHT22;5595;50.186;8.468;2023-11-19T06:57:32;9.50;99.90
11083;DHT22;5595;50.186;8.468;2023-11-19T06:59:59;9.50;99.90
11083;DHT22;5595;50.186;8.468;2023-11-19T07:02:26;9.50;99.90
11083;DHT22;5595;50.186;8.468;2023-11-19T07:04:54;9.60;99.90
11083;DHT22;5595;50.186;8.468;2023-11-19T07:07:21;9.60;99.90
11083;DHT22;5595;50.186;8.468;2023-11-19T07:09:47;9.60;99.90
11083;DHT22;5595;50.186;8.468;2023-11-19T07:12:14;9.60;99.90
11083;DHT22;5595;50.186;8.468;2023-11-19T07:14:41;9.60;99.90
11083;DHT22;5595;50.186;8.468;2023-11-19T07:17:08;9.70;99.90
11083;DHT22;5595;50.186;8.468;2023-11-19T07:19:35;9.70;99.90
11083;DHT22;5595;50.186;8.468;2023-11-19T07:22:05;9.70;99.90
11083;DHT22;5595;50.186;8.468;2023-11-19T07:24:32;9.80;99.90
11083;DHT22;5595;50.186;8.468;2023-11-19T07:26:59;9.80;99.90
11083;DHT22;5595;50.186;8.468;2023-11-19T07:29:26;9.80;99.90
11083;DHT22;5595;50.186;8.468;2023-11-19T07:31:53;9.90;99.90
11083;DHT22;5595;50.186;8.468;2023-11-19T07:34:19;9.80;99.90
11083;DHT22;5595;50.186;8.468;2023-11-19T07:36:46;9.90;99.90
11083;DHT22;5595;50.186;8.468;2023-11-19T07:39:14;9.80;99.90
11083;DHT22;5595;50.186;8.468;2023-11-19T07:41:41;9.90;99.90
11083;DHT22;5595;50.186;8.468;2023-11-19T07:44:08;9.90;99.90
11083;DHT22;5595;50.186;8.468;2023-11-19T07:46:35;9.90;99.90
11083;DHT22;5595;50.186;8.468;2023-11-19T07:49:01;10.00;99.90
11083;DHT22;5595;50.186;8.468;2023-11-19T07:51:28;10.00;99.90
11083;DHT22;5595;50.186;8.468;2023-11-19T07:53:55;10.00;99.90
11083;DHT22;5595;50.186;8.468;2023-11-19T07:56:23;10.10;99.90
11083;DHT22;5595;50.186;8.468;2023-11-19T07:58:50;10.10;99.90
11083;DHT22;5595;50.186;8.468;2023-11-19T08:01:17;10.10;99.90
11083;DHT22;5595;50.186;8.468;2023-11-19T08:03:44;10.10;99.90
11083;DHT22;5595;50.186;8.468;2023-11-19T08:06:11;10.10;99.90
11083;DHT22;5595;50.186;8.468;2023-11-19T08:08:37;10.20;99.90
11083;DHT22;5595;50.186;8.468;2023-11-19T08:11:05;10.20;99.90
11083;DHT22;5595;50.186;8.468;2023-11-19T08:13:33;10.20;99.90
11083;DHT22;5595;50.186;8.468;2023-11-19T08:16:00;10.20;99.90
11083;DHT22;5595;50.186;8.468;2023-11-19T08:18:26;10.30;99.90
11083;DHT22;5595;50.186;8.468;2023-11-19T08:20:53;10.30;99.90
11083;DHT22;5595;50.186;8.468;2023-11-19T08:23:22;10.40;99.90
11083;DHT22;5595;50.186;8.468;2023-11-19T08:25:51;10.50;99.90
11083;DHT22;5595;50.186;8.468;2023-11-19T08:28:17;10.60;99.90
11083;DHT22;5595;50.186;8.468;2023-11-19T08:30:46;10.60;99.90
11083;DHT22;5595;50.186;8.468;2023-11-19T08:33:13;10.70;99.90
11083;DHT22;5595;50.186;8.468;2023-11-19T08:35:40;10.80;99.90
11083;DHT22;5595;50.186;8.468;2023-11-19T08:38:07;10.90;99.90
11083;DHT22;5595;50.186;8.468;2023-11-19T08:40:34;10.90;99.90
11083;DHT22;5595;50.186;8.468;2023-11-19T08:43:00;11.00;99.90
11083;DHT22;5595;50.186;8.468;2023-11-19T08:45:27;11.00;99.90
11083;DHT22;5595;50.186;8.468;2023-11-19T08:47:55;11.10;99.90
11083;DHT22;5595;50.186;8.468;2023-11-19T08:50:22;11.10;99.90
11083;DHT22;5595;50.186;8.468;2023-11-19T08:52:48;11.20;99.90
11083;DHT22;5595;50.186;8.468;2023-11-19T08:55:15;11.20;99.90
11083;DHT22;5595;50.186;8.468;2023-11-19T08:57:42;11.10;99.90
11083;DHT22;5595;50.186;8.468;2023-11-19T09:00:09;11.10;99.90
11083;DHT22;5595;50.186;8.468;2023-11-19T09:02:36;11.20;99.90
11083;DHT22;5595;50.186;8.468;2023-11-19T09:05:05;11.20;99.90
11083;DHT22;5595;50.186;8.468;2023-11-19T09:07:32;11.30;99.90
11083;DHT22;5595;50.186;8.468;2023-11-19T09:09:59;11.30;99.90
11083;DHT22;5595;50.186;8.468;2023-11-19T09:12:26;11.30;99.90
11083;DHT22;5595;50.186;8.468;2023-11-19T09:14:53;11.30;99.90
11083;DHT22;5595;50.186;8.468;2023-11-19T09:17:20;11.30;99.90
11083;DHT22;5595;50.186;8.468;2023-11-19T09:19:46;11.40;99.90
11083;DHT22;5595;50.186;8.468;2023-11-19T09:22:14;11.30;99.90
11083;DHT22;5595;50.186;8.468;2023-11-19T09:24:41;11.30;99.90
11083;DHT22;5595;50.186;8.468;2023-11-19T09:27:09;11.40;99.90
11083;DHT22;5595;50.186;8.468;2023-11-19T09:29:36;11.50;99.90
11083;DHT22;5595;50.186;8.468;2023-11-19T09:32:04;11.50;99.90
11083;DHT22;5595;50.186;8.468;2023-11-19T09:34:31;11.50;99.90
11083;DHT22;5595;50.186;8.468;2023-11-19T09:36:58;11.60;99.90
11083;DHT22;5595;50.186;8.468;2023-11-19T09:39:26;11.50;99.90
11083;DHT22;5595;50.186;8.468;2023-11-19T09:41:53;11.50;99.90
11083;DHT22;5595;50.186;8.468;2023-11-19T09:44:19;11.50;99.90
11083;DHT22;5595;50.186;8.468;2023-11-19T09:46:46;11.60;99.90
11083;DHT22;5595;50.186;8.468;2023-11-19T09:49:14;11.50;99.90
11083;DHT22;5595;50.186;8.468;2023-11-19T09:51:45;11.60;99.90
11083;DHT22;5595;50.186;8.468;2023-11-19T09:54:12;11.60;99.90
11083;DHT22;5595;50.186;8.468;2023-11-19T09:56:40;11.60;99.90
11083;DHT22;5595;50.186;8.468;2023-11-19T09:59:08;11.60;99.90
11083;DHT22;5595;50.186;8.468;2023-11-19T10:01:37;11.60;99.90
11083;DHT22;5595;50.186;8.468;2023-11-19T10:04:05;11.60;99.90
11083;DHT22;5595;50.186;8.468;2023-11-19T10:06:33;11.60;99.90
11083;DHT22;5595;50.186;8.468;2023-11-19T10:08:59;11.60;99.90
11083;DHT22;5595;50.186;8.468;2023-11-19T10:11:26;11.70;99.90
11083;DHT22;5595;50.186;8.468;2023-11-19T10:13:54;11.70;99.90
11083;DHT22;5595;50.186;8.468;2023-11-19T10:16:28;11.80;99.90
11083;DHT22;5595;50.186;8.468;2023-11-19T10:18:55;12.00;99.90
11083;DHT22;5595;50.186;8.468;2023-11-19T10:21:22;12.20;99.90
11083;DHT22;5595;50.186;8.468;2023-11-19T10:23:51;12.50;99.90
11083;DHT22;5595;50.186;8.468;2023-11-19T10:26:18;12.70;99.90
11083;DHT22;5595;50.186;8.468;2023-11-19T10:28:46;12.80;99.90
11083;DHT22;5595;50.186;8.468;2023-11-19T10:31:15;12.80;99.90
11083;DHT22;5595;50.186;8.468;2023-11-19T10:33:42;12.70;99.90
11083;DHT22;5595;50.186;8.468;2023-11-19T10:36:10;12.70;99.90
11083;DHT22;5595;50.186;8.468;2023-11-19T10:38:38;12.70;99.90
11083;DHT22;5595;50.186;8.468;2023-11-19T10:41:05;12.60;99.90
11083;DHT22;5595;50.186;8.468;2023-11-19T10:43:42;12.50;99.90
11083;DHT22;5595;50.186;8.468;2023-11-19T10:46:11;12.50;99.90
11083;DHT22;5595;50.186;8.468;2023-11-19T10:48:39;12.50;99.90
11083;DHT22;5595;50.186;8.468;2023-11-19T10:51:07;12.60;99.90
11083;DHT22;5595;50.186;8.468;2023-11-19T10:53:37;12.60;99.90
11083;DHT22;5595;50.186;8.468;2023-11-19T10:56:10;12.70;99.90
11083;DHT22;5595;50.186;8.468;2023-11-19T10:58:44;12.90;99.90
11083;DHT22;5595;50.186;8.468;2023-11-19T11:01:14;13.00;99.90
11083;DHT22;5595;50.186;8.468;2023-11-19T11:03:44;13.10;99.90
11083;DHT22;5595;50.186;8.468;2023-11-19T11:06:13;13.10;99.90
11083;DHT22;5595;50.186;8.468;2023-11-19T11:08:40;13.10;99.90
11083;DHT22;5595;50.186;8.468;2023-11-19T11:11:07;13.10;99.90
11083;DHT22;5595;50.186;8.468;2023-11-19T11:13:37;13.10;99.90
11083;DHT22;5595;50.186;8.468;2023-11-19T11:16:08;13.10;99.90
11083;DHT22;5595;50.186;8.468;2023-11-19T11:18:35;13.10;99.90
11083;DHT22;5595;50.186;8.468;2023-11-19T11:21:06;13.00;99.90
11083;DHT22;5595;50.186;8.468;2023-11-19T11:26:59;13.10;99.90
11083;DHT22;5595;50.186;8.468;2023-11-19T11:29:35;13.20;99.90
11083;DHT22;5595;50.186;8.468;2023-11-19T11:32:16;13.10;99.90
11083;DHT22;5595;50.186;8.468;2023-11-19T11:35:16;13.10;99.90
11083;DHT22;5595;50.186;8.468;2023-11-19T11:37:49;13.00;99.90
11083;DHT22;5595;50.186;8.468;2023-11-19T11:40:19;12.90;99.90
11083;DHT22;5595;50.186;8.468;2023-11-19T11:42:49;12.80;99.90
11083;DHT22;5595;50.186;8.468;2023-11-19T11:45:18;12.70;99.90
11083;DHT22;5595;50.186;8.468;2023-11-19T11:48:10;12.70;99.90
11083;DHT22;5595;50.186;8.468;2023-11-19T11:50:54;12.70;99.90
11083;DHT22;5595;50.186;8.468;2023-11-19T11:53:23;12.70;99.90
11083;DHT22;5595;50.186;8.468;2023-11-19T11:55:57;12.70;99.90
11083;DHT22;5595;50.186;8.468;2023-11-19T11:58:35;12.70;99.90
11083;DHT22;5595;50.186;8.468;2023-11-19T12:01:04;12.80;99.90
11083;DHT22;5595;50.186;8.468;2023-11-19T12:03:34;12.90;99.90
11083;DHT22;5595;50.186;8.468;2023-11-19T12:06:02;13.00;99.90
11083;DHT22;5595;50.186;8.468;2023-11-19T12:08:30;13.00;99.90
11083;DHT22;5595;50.186;8.468;2023-11-19T12:10:58;13.00;99.90
11083;DHT22;5595;50.186;8.468;2023-11-19T12:13:42;13.00;99.90
11083;DHT22;5595;50.186;8.468;2023-11-19T12:16:10;13.00;99.90
11083;DHT22;5595;50.186;8.468;2023-11-19T12:18:39;13.10;99.90
11083;DHT22;5595;50.186;8.468;2023-11-19T12:21:07;13.10;99.90
11083;DHT22;5595;50.186;8.468;2023-11-19T12:23:47;13.10;99.90
11083;DHT22;5595;50.186;8.468;2023-11-19T12:26:30;13.20;99.90
11083;DHT22;5595;50.186;8.468;2023-11-19T12:28:58;13.20;99.90
11083;DHT22;5595;50.186;8.468;2023-11-19T12:31:25;13.20;99.90
11083;DHT22;5595;50.186;8.468;2023-11-19T12:33:52;13.10;99.90
11083;DHT22;5595;50.186;8.468;2023-11-19T12:36:20;13.10;99.90
11083;DHT22;5595;50.186;8.468;2023-11-19T12:38:48;13.10;99.90
11083;DHT22;5595;50.186;8.468;2023-11-19T12:41:17;13.10;99.90
11083;DHT22;5595;50.186;8.468;2023-11-19T12:43:47;13.20;99.90
11083;DHT22;5595;50.186;8.468;2023-11-19T12:46:18;13.30;99.90
11083;DHT22;5595;50.186;8.468;2023-11-19T12:48:45;13.40;99.90
11083;DHT22;5595;50.186;8.468;2023-11-19T12:51:12;13.40;99.90
11083;DHT22;5595;50.186;8.468;2023-11-19T12:53:49;13.40;99.90
11083;DHT22;5595;50.186;8.468;2023-11-19T12:56:18;13.60;99.90
11083;DHT22;5595;50.186;8.468;2023-11-19T12:58:45;13.70;99.90
11083;DHT22;5595;50.186;8.468;2023-11-19T13:01:16;13.80;99.90
11083;DHT22;5595;50.186;8.468;2023-11-19T13:03:45;14.00;99.90
11083;DHT22;5595;50.186;8.468;2023-11-19T13:06:13;14.20;99.90
11083;DHT22;5595;50.186;8.468;2023-11-19T13:08:42;14.40;99.90
11083;DHT22;5595;50.186;8.468;2023-11-19T13:11:11;14.50;99.90
11083;DHT22;5595;50.186;8.468;2023-11-19T13:13:54;14.50;99.90
11083;DHT22;5595;50.186;8.468;2023-11-19T13:16:21;14.40;99.90
11083;DHT22;5595;50.186;8.468;2023-11-19T13:18:48;14.30;99.90
11083;DHT22;5595;50.186;8.468;2023-11-19T13:21:15;14.30;99.90
11083;DHT22;5595;50.186;8.468;2023-11-19T13:23:42;14.30;99.90
11083;DHT22;5595;50.186;8.468;2023-11-19T13:26:10;14.20;99.90
11083;DHT22;5595;50.186;8.468;2023-11-19T13:28:37;14.00;99.90
11083;DHT22;5595;50.186;8.468;2023-11-19T13:31:05;13.90;99.90
11083;DHT22;5595;50.186;8.468;2023-11-19T13:33:32;13.80;99.90
11083;DHT22;5595;50.186;8.468;2023-11-19T13:35:59;13.70;99.90
11083;DHT22;5595;50.186;8.468;2023-11-19T13:38:31;13.60;99.90
11083;DHT22;5595;50.186;8.468;2023-11-19T13:40:57;13.50;99.90
11083;DHT22;5595;50.186;8.468;2023-11-19T13:43:26;13.40;99.90
11083;DHT22;5595;50.186;8.468;2023-11-19T13:45:53;13.40;99.90
11083;DHT22;5595;50.186;8.468;2023-11-19T13:48:20;13.30;99.90
11083;DHT22;5595;50.186;8.468;2023-11-19T13:50:47;13.30;99.90
11083;DHT22;5595;50.186;8.468;2023-11-19T13:53:14;13.20;99.90
11083;DHT22;5595;50.186;8.468;2023-11-19T13:55:41;13.30;99.90
11083;DHT22;5595;50.186;8.468;2023-11-19T13:58:08;13.20;99.90
11083;DHT22;5595;50.186;8.468;2023-11-19T14:00:36;13.20;99.90
11083;DHT22;5595;50.186;8.468;2023-11-19T14:03:03;13.10;99.90
11083;DHT22;5595;50.186;8.468;2023-11-19T14:05:30;13.10;99.90
11083;DHT22;5595;50.186;8.468;2023-11-19T14:07:57;13.10;99.90
11083;DHT22;5595;50.186;8.468;2023-11-19T14:10:24;13.00;99.90
11083;DHT22;5595;50.186;8.468;2023-11-19T14:12:51;13.00;99.90
11083;DHT22;5595;50.186;8.468;2023-11-19T14:15:18;12.90;99.90
11083;DHT22;5595;50.186;8.468;2023-11-19T14:17:46;12.90;99.90
11083;DHT22;5595;50.186;8.468;2023-11-19T14:20:13;12.90;99.90
11083;DHT22;5595;50.186;8.468;2023-11-19T14:22:43;12.90;99.90
11083;DHT22;5595;50.186;8.468;2023-11-19T14:25:10;12.80;99.90
11083;DHT22;5595;50.186;8.468;2023-11-19T14:27:37;12.70;99.90
11083;DHT22;5595;50.186;8.468;2023-11-19T14:30:05;12.70;99.90
11083;DHT22;5595;50.186;8.468;2023-11-19T14:32:32;12.60;99.90
11083;DHT22;5595;50.186;8.468;2023-11-19T14:35:00;12.60;99.90
11083;DHT22;5595;50.186;8.468;2023-11-19T14:37:29;12.60;99.90
11083;DHT22;5595;50.186;8.468;2023-11-19T14:39:56;12.60;99.90
11083;DHT22;5595;50.186;8.468;2023-11-19T14:42:24;12.60;99.90
11083;DHT22;5595;50.186;8.468;2023-11-19T14:44:52;12.60;99.90
11083;DHT22;5595;50.186;8.468;2023-11-19T14:47:19;12.50;99.90
11083;DHT22;5595;50.186;8.468;2023-11-19T14:49:46;12.40;99.90
11083;DHT22;5595;50.186;8.468;2023-11-19T14:52:14;12.30;99.90
11083;DHT22;5595;50.186;8.468;2023-11-19T14:54:41;12.20;99.90
11083;DHT22;5595;50.186;8.468;2023-11-19T14:57:08;12.20;99.90
11083;DHT22;5595;50.186;8.468;2023-11-19T14:59:35;12.10;99.90
11083;DHT22;5595;50.186;8.468;2023-11-19T15:02:02;12.10;99.90
11083;DHT22;5595;50.186;8.468;2023-11-19T15:04:29;12.10;99.90
11083;DHT22;5595;50.186;8.468;2023-11-19T15:06:57;12.10;99.90
11083;DHT22;5595;50.186;8.468;2023-11-19T15:09:25;12.10;99.90
11083;DHT22;5595;50.186;8.468;2023-11-19T15:11:53;12.20;99.90
11083;DHT22;5595;50.186;8.468;2023-11-19T15:14:20;12.10;99.90
11083;DHT22;5595;50.186;8.468;2023-11-19T15:16:48;12.20;99.90
11083;DHT22;5595;50.186;8.468;2023-11-19T15:19:17;12.20;99.90
11083;DHT22;5595;50.186;8.468;2023-11-19T15:21:45;12.10;99.90
11083;DHT22;5595;50.186;8.468;2023-11-19T15:24:12;12.20;99.90
11083;DHT22;5595;50.186;8.468;2023-11-19T15:26:40;12.20;99.90
11083;DHT22;5595;50.186;8.468;2023-11-19T15:29:07;12.20;99.90
11083;DHT22;5595;50.186;8.468;2023-11-19T15:31:34;12.10;99.90
11083;DHT22;5595;50.186;8.468;2023-11-19T15:34:01;12.00;99.90
11083;DHT22;5595;50.186;8.468;2023-11-19T15:36:28;11.90;99.90
11083;DHT22;5595;50.186;8.468;2023-11-19T15:38:57;11.80;99.90
11083;DHT22;5595;50.186;8.468;2023-11-19T15:41:24;11.70;99.90
11083;DHT22;5595;50.186;8.468;2023-11-19T15:43:52;11.60;99.90
11083;DHT22;5595;50.186;8.468;2023-11-19T15:46:20;11.60;99.90
11083;DHT22;5595;50.186;8.468;2023-11-19T15:48:47;11.60;99.90
11083;DHT22;5595;50.186;8.468;2023-11-19T15:51:13;11.60;99.90
11083;DHT22;5595;50.186;8.468;2023-11-19T15:53:40;11.50;99.90
11083;DHT22;5595;50.186;8.468;2023-11-19T15:56:08;11.50;99.90
11083;DHT22;5595;50.186;8.468;2023-11-19T15:58:35;11.50;99.90
11083;DHT22;5595;50.186;8.468;2023-11-19T16:01:03;11.40;99.90
11083;DHT22;5595;50.186;8.468;2023-11-19T16:03:30;11.30;99.90
11083;DHT22;5595;50.186;8.468;2023-11-19T16:05:58;11.30;99.90
11083;DHT22;5595;50.186;8.468;2023-11-19T16:08:25;11.30;99.90
11083;DHT22;5595;50.186;8.468;2023-11-19T16:10:52;11.30;99.90
11083;DHT22;5595;50.186;8.468;2023-11-19T16:13:19;11.30;99.90
11083;DHT22;5595;50.186;8.468;2023-11-19T16:15:47;11.30;99.90
11083;DHT22;5595;50.186;8.468;2023-11-19T16:18:15;11.30;99.90
11083;DHT22;5595;50.186;8.468;2023-11-19T16:20:42;11.30;99.90
11083;DHT22;5595;50.186;8.468;2023-11-19T16:23:10;11.20;99.90
11083;DHT22;5595;50.186;8.468;2023-11-19T16:25:37;11.20;99.90
11083;DHT22;5595;50.186;8.468;2023-11-19T16:28:04;11.10;99.90
11083;DHT22;5595;50.186;8.468;2023-11-19T16:30:32;11.00;99.90
11083;DHT22;5595;50.186;8.468;2023-11-19T16:32:59;11.00;99.90
11083;DHT22;5595;50.186;8.468;2023-11-19T16:35:27;10.90;99.90
11083;DHT22;5595;50.186;8.468;2023-11-19T16:37:54;10.90;99.90
11083;DHT22;5595;50.186;8.468;2023-11-19T16:40:21;11.00;99.90